createdAt,value
2018-09-04T00:00:58.597Z,18.40
2018-09-04T00:02:02.132Z,11.93
2018-09-04T00:03:05.741Z,15.33
2018-09-04T00:04:09.167Z,14.10
2018-09-04T00:05:12.584Z,19.73
2018-09-04T00:06:15.986Z,15.20
2018-09-04T00:07:22.609Z,16.30
2018-09-04T00:08:25.981Z,13.23
2018-09-04T00:09:29.429Z,13.97
2018-09-04T00:10:32.817Z,13.77
2018-09-04T00:11:36.246Z,14.40
2018-09-04T00:14:12.353Z,17.70
2018-09-04T00:15:15.786Z,15.97
2018-09-04T00:16:19.634Z,16.03
2018-09-04T00:17:23.018Z,15.20
2018-09-04T00:18:26.468Z,20.00
2018-09-04T00:19:29.901Z,22.97
2018-09-04T00:20:33.332Z,16.53
2018-09-04T00:21:36.698Z,14.30
2018-09-04T00:22:40.123Z,16.67
2018-09-04T00:23:43.561Z,12.80
2018-09-04T00:24:46.972Z,18.80
2018-09-04T00:25:50.370Z,12.60
2018-09-04T00:26:53.763Z,15.23
2018-09-04T00:27:57.150Z,14.17
2018-09-04T00:29:00.579Z,15.33
2018-09-04T00:30:04.174Z,20.60
2018-09-04T00:31:07.550Z,15.53
2018-09-04T00:32:10.930Z,14.30
2018-09-04T00:33:14.321Z,29.87
2018-09-04T00:34:17.827Z,16.47
2018-09-04T00:35:21.250Z,15.77
2018-09-04T00:36:24.682Z,18.03
2018-09-04T00:37:28.149Z,13.80
2018-09-04T00:38:31.581Z,16.03
2018-09-04T00:39:34.938Z,10.80
2018-09-04T00:40:38.360Z,16.33
2018-09-04T00:41:41.784Z,18.60
2018-09-04T00:42:45.223Z,12.50
2018-09-04T00:43:48.602Z,18.13
2018-09-04T00:44:52.187Z,15.20
2018-09-04T00:45:55.685Z,18.87
2018-09-04T00:46:59.462Z,14.03
2018-09-04T00:48:02.853Z,14.40
2018-09-04T00:49:06.306Z,15.20
2018-09-04T00:50:09.804Z,19.53
2018-09-04T00:51:13.232Z,16.07
2018-09-04T00:52:16.640Z,18.10
2018-09-04T00:53:20.339Z,11.00
2018-09-04T00:54:23.764Z,14.50
2018-09-04T00:55:27.210Z,9.97
2018-09-04T00:56:30.656Z,12.27
2018-09-04T00:57:34.066Z,17.00
2018-09-04T00:58:37.464Z,22.10
2018-09-04T00:59:40.873Z,12.43
2018-09-04T01:00:44.313Z,12.00
2018-09-04T01:01:47.711Z,13.53
2018-09-04T01:02:51.084Z,12.40
2018-09-04T01:03:54.466Z,17.80
2018-09-04T01:04:57.871Z,11.33
2018-09-04T01:06:01.258Z,9.53
2018-09-04T01:07:04.749Z,10.60
2018-09-04T01:08:08.133Z,12.70
2018-09-04T01:09:14.099Z,15.57
2018-09-04T01:10:17.520Z,13.20
2018-09-04T01:11:20.913Z,16.73
2018-09-04T01:12:24.343Z,16.63
2018-09-04T01:13:27.738Z,12.50
2018-09-04T01:14:31.132Z,11.53
2018-09-04T01:15:34.732Z,13.20
2018-09-04T01:16:38.146Z,15.60
2018-09-04T01:17:41.759Z,10.77
2018-09-04T01:18:45.340Z,18.30
2018-09-04T01:19:48.805Z,10.50
2018-09-04T01:20:52.221Z,14.67
2018-09-04T01:21:55.687Z,13.60
2018-09-04T01:22:59.094Z,14.20
2018-09-04T01:24:02.542Z,15.97
2018-09-04T01:25:06.008Z,15.30
2018-09-04T01:26:09.418Z,12.50
2018-09-04T01:27:12.793Z,14.20
2018-09-04T01:28:16.223Z,16.23
2018-09-04T01:29:19.609Z,11.40
2018-09-04T01:30:23.024Z,18.57
2018-09-04T01:31:26.440Z,11.93
2018-09-04T01:32:29.908Z,16.03
2018-09-04T01:33:33.303Z,14.70
2018-09-04T01:34:36.703Z,13.07
2018-09-04T01:35:40.158Z,11.03
2018-09-04T01:36:43.528Z,14.00
2018-09-04T01:37:46.941Z,14.30
2018-09-04T01:38:50.388Z,12.47
2018-09-04T01:39:53.816Z,16.90
2018-09-04T01:40:57.292Z,13.77
2018-09-04T01:42:00.678Z,12.10
2018-09-04T01:43:04.054Z,14.77
2018-09-04T01:44:07.468Z,14.33
2018-09-04T01:45:10.852Z,11.73
2018-09-04T01:46:14.256Z,12.33
2018-09-04T01:47:17.650Z,15.30
2018-09-04T01:48:21.137Z,13.43
2018-09-04T01:49:24.569Z,13.50
2018-09-04T01:50:28.023Z,11.30
2018-09-04T01:51:31.420Z,13.77
2018-09-04T01:52:34.825Z,9.83
2018-09-04T01:53:38.227Z,12.70
2018-09-04T01:54:41.616Z,12.20
2018-09-04T01:55:45.102Z,11.37
2018-09-04T01:56:48.475Z,9.80
2018-09-04T01:57:51.882Z,10.77
2018-09-04T01:58:55.299Z,12.90
2018-09-04T01:59:58.730Z,10.97
2018-09-04T02:01:02.252Z,13.70
2018-09-04T02:02:05.862Z,17.03
2018-09-04T02:03:09.263Z,11.80
2018-09-04T02:04:12.701Z,15.30
2018-09-04T02:05:16.120Z,12.87
2018-09-04T02:06:19.543Z,11.80
2018-09-04T02:07:22.925Z,14.17
2018-09-04T02:08:26.883Z,12.87
2018-09-04T02:09:30.370Z,12.00
2018-09-04T02:10:33.763Z,11.20
2018-09-04T02:11:37.242Z,12.83
2018-09-04T02:12:40.655Z,9.60
2018-09-04T02:13:44.063Z,11.50
2018-09-04T02:14:47.495Z,8.40
2018-09-04T02:15:50.993Z,14.83
2018-09-04T02:16:54.378Z,9.60
2018-09-04T02:17:57.883Z,12.63
2018-09-04T02:19:01.332Z,12.10
2018-09-04T02:20:05.000Z,13.03
2018-09-04T02:21:08.431Z,10.13
2018-09-04T02:22:11.818Z,11.37
2018-09-04T02:23:15.231Z,9.93
2018-09-04T02:24:18.667Z,11.00
2018-09-04T02:25:22.083Z,16.63
2018-09-04T02:26:25.466Z,27.60
2018-09-04T02:27:28.860Z,10.37
2018-09-04T02:28:32.320Z,15.63
2018-09-04T02:29:35.691Z,11.90
2018-09-04T02:30:39.070Z,14.40
2018-09-04T02:31:42.495Z,8.40
2018-09-04T02:32:45.904Z,10.40
2018-09-04T02:33:49.320Z,14.47
2018-09-04T02:34:52.753Z,13.73
2018-09-04T02:35:56.168Z,14.23
2018-09-04T02:36:59.603Z,8.93
2018-09-04T02:38:03.026Z,11.17
2018-09-04T02:39:09.083Z,14.50
2018-09-04T02:40:12.457Z,9.70
2018-09-04T02:41:15.868Z,9.43
2018-09-04T02:42:19.256Z,8.87
2018-09-04T02:43:22.663Z,12.60
2018-09-04T02:44:26.097Z,13.80
2018-09-04T02:45:29.523Z,11.13
2018-09-04T02:46:32.927Z,10.67
2018-09-04T02:47:36.374Z,11.80
2018-09-04T02:48:39.777Z,12.67
2018-09-04T02:49:43.159Z,10.07
2018-09-04T02:50:46.561Z,7.87
2018-09-04T02:51:50.010Z,16.70
2018-09-04T02:52:53.402Z,15.13
2018-09-04T02:53:56.870Z,10.17
2018-09-04T02:55:00.300Z,12.70
2018-09-04T02:56:03.725Z,18.17
2018-09-04T02:57:07.106Z,11.67
2018-09-04T02:58:11.006Z,13.30
2018-09-04T02:59:14.406Z,11.57
2018-09-04T03:00:17.794Z,14.57
2018-09-04T03:01:21.192Z,11.10
2018-09-04T03:02:24.620Z,15.17
2018-09-04T03:03:28.042Z,10.53
2018-09-04T03:04:31.428Z,13.73
2018-09-04T03:05:34.912Z,11.00
2018-09-04T03:06:38.332Z,14.90
2018-09-04T03:07:41.763Z,14.83
2018-09-04T03:08:45.199Z,9.83
2018-09-04T03:09:48.723Z,10.03
2018-09-04T03:10:52.124Z,10.60
2018-09-04T03:11:55.465Z,10.27
2018-09-04T03:12:58.872Z,13.90
2018-09-04T03:14:02.440Z,11.03
2018-09-04T03:15:06.112Z,12.07
2018-09-04T03:16:09.525Z,16.73
2018-09-04T03:17:12.917Z,14.73
2018-09-04T03:18:16.312Z,16.00
2018-09-04T03:19:19.733Z,10.50
2018-09-04T03:20:23.109Z,18.50
2018-09-04T03:21:26.520Z,21.30
2018-09-04T03:22:29.917Z,18.43
2018-09-04T03:23:33.289Z,10.47
2018-09-04T03:24:36.697Z,10.60
2018-09-04T03:25:40.078Z,14.83
2018-09-04T03:26:43.474Z,12.73
2018-09-04T03:27:46.845Z,10.93
2018-09-04T03:28:50.261Z,10.27
2018-09-04T03:29:53.690Z,12.60
2018-09-04T03:30:57.158Z,11.90
2018-09-04T03:32:00.534Z,10.20
2018-09-04T03:33:03.981Z,11.47
2018-09-04T03:34:07.368Z,10.50
2018-09-04T03:35:10.792Z,9.60
2018-09-04T03:36:14.198Z,8.97
2018-09-04T03:37:17.684Z,15.30
2018-09-04T03:38:21.090Z,12.50
2018-09-04T03:39:24.488Z,7.97
2018-09-04T03:40:27.955Z,17.43
2018-09-04T03:41:31.336Z,15.70
2018-09-04T03:42:34.773Z,8.17
2018-09-04T03:43:38.204Z,13.93
2018-09-04T03:44:41.605Z,11.10
2018-09-04T03:45:45.062Z,16.43
2018-09-04T03:46:49.303Z,9.07
2018-09-04T03:47:52.700Z,12.60
2018-09-04T03:48:56.080Z,23.63
2018-09-04T03:49:59.482Z,10.37
2018-09-04T03:51:02.972Z,9.00
2018-09-04T03:52:06.539Z,18.57
2018-09-04T03:53:09.891Z,13.27
2018-09-04T03:54:13.301Z,13.00
2018-09-04T03:55:16.674Z,10.30
2018-09-04T03:56:20.057Z,12.50
2018-09-04T03:57:23.490Z,15.20
2018-09-04T03:58:26.966Z,12.33
2018-09-04T03:59:30.401Z,10.03
2018-09-04T04:00:33.820Z,10.87
2018-09-04T04:01:37.237Z,13.20
2018-09-04T04:02:41.094Z,17.70
2018-09-04T04:03:44.477Z,14.93
2018-09-04T04:04:47.881Z,12.50
2018-09-04T04:05:51.279Z,12.00
2018-09-04T04:06:54.684Z,10.43
2018-09-04T04:07:58.084Z,12.47
2018-09-04T04:09:01.535Z,10.07
2018-09-04T04:10:05.007Z,16.60
2018-09-04T04:11:08.438Z,9.87
2018-09-04T04:12:11.822Z,10.10
2018-09-04T04:13:15.200Z,7.20
2018-09-04T04:14:18.604Z,11.30
2018-09-04T04:15:22.004Z,9.90
2018-09-04T04:16:25.444Z,10.20
2018-09-04T04:17:28.894Z,15.10
2018-09-04T04:18:32.285Z,11.73
2018-09-04T04:19:35.675Z,15.73
2018-09-04T04:20:39.040Z,11.50
2018-09-04T04:21:42.421Z,9.03
2018-09-04T04:22:46.136Z,8.33
2018-09-04T04:23:49.583Z,10.83
2018-09-04T04:24:53.409Z,17.70
2018-09-04T04:25:58.116Z,14.33
2018-09-04T04:27:01.589Z,10.87
2018-09-04T04:28:04.981Z,12.20
2018-09-04T04:29:08.417Z,12.00
2018-09-04T04:30:11.944Z,11.83
2018-09-04T04:31:15.354Z,7.80
2018-09-04T04:32:18.784Z,14.70
2018-09-04T04:33:22.367Z,18.87
2018-09-04T04:34:25.796Z,11.83
2018-09-04T04:35:29.198Z,9.57
2018-09-04T04:36:32.588Z,9.60
2018-09-04T04:37:36.004Z,12.67
2018-09-04T04:38:39.458Z,12.73
2018-09-04T04:39:42.865Z,15.13
2018-09-04T04:40:46.272Z,9.47
2018-09-04T04:41:49.746Z,16.40
2018-09-04T04:42:53.132Z,6.53
2018-09-04T04:43:56.548Z,8.33
2018-09-04T04:44:59.969Z,13.87
2018-09-04T04:46:03.422Z,12.37
2018-09-04T04:47:06.824Z,18.00
2018-09-04T04:48:10.254Z,9.70
2018-09-04T04:49:13.658Z,9.43
2018-09-04T04:50:17.864Z,9.20
2018-09-04T04:51:21.298Z,17.20
2018-09-04T04:52:24.716Z,10.57
2018-09-04T04:53:28.256Z,12.93
2018-09-04T04:54:31.870Z,10.83
2018-09-04T04:55:35.344Z,12.47
2018-09-04T04:56:38.770Z,12.57
2018-09-04T04:57:42.179Z,9.70
2018-09-04T04:58:45.610Z,7.47
2018-09-04T04:59:49.031Z,8.53
2018-09-04T05:00:52.443Z,20.93
2018-09-04T05:01:55.856Z,11.37
2018-09-04T05:02:59.326Z,13.27
2018-09-04T05:04:02.771Z,15.23
2018-09-04T05:05:06.488Z,14.50
2018-09-04T05:06:09.922Z,14.57
2018-09-04T05:07:13.331Z,10.63
2018-09-04T05:08:16.845Z,15.90
2018-09-04T05:09:20.241Z,7.80
2018-09-04T05:10:23.680Z,17.70
2018-09-04T05:11:27.177Z,6.70
2018-09-04T05:12:30.654Z,12.30
2018-09-04T05:13:34.111Z,8.13
2018-09-04T05:14:37.551Z,11.70
2018-09-04T05:15:40.914Z,12.13
2018-09-04T05:16:44.366Z,9.43
2018-09-04T05:17:47.803Z,10.10
2018-09-04T05:18:51.425Z,14.03
2018-09-04T05:19:54.810Z,8.10
2018-09-04T05:20:58.386Z,9.20
2018-09-04T05:22:01.999Z,9.90
2018-09-04T05:23:05.646Z,8.37
2018-09-04T05:24:09.084Z,7.07
2018-09-04T05:25:12.462Z,8.80
2018-09-04T05:26:15.819Z,19.43
2018-09-04T05:27:19.238Z,8.67
2018-09-04T05:28:22.604Z,9.27
2018-09-04T05:29:26.295Z,8.90
2018-09-04T05:30:29.700Z,10.97
2018-09-04T05:31:37.787Z,9.80
2018-09-04T05:32:44.774Z,14.80
2018-09-04T05:33:48.219Z,15.40
2018-09-04T05:34:51.606Z,10.13
2018-09-04T05:35:56.844Z,10.53
2018-09-04T05:37:00.457Z,10.33
2018-09-04T05:38:03.867Z,9.47
2018-09-04T05:39:09.972Z,13.47
2018-09-04T05:40:14.321Z,10.73
2018-09-04T05:41:17.693Z,12.30
2018-09-04T05:42:24.203Z,23.63
2018-09-04T05:43:59.766Z,23.93
2018-09-04T05:45:04.347Z,36.03
2018-09-04T05:46:10.976Z,30.20
2018-09-04T05:47:14.499Z,33.03
2018-09-04T05:48:18.086Z,32.47
2018-09-04T05:49:23.730Z,38.53
2018-09-04T05:50:27.216Z,40.13
2018-09-04T05:51:30.651Z,32.67
2018-09-04T05:52:34.070Z,37.67
2018-09-04T05:53:37.622Z,41.57
2018-09-04T05:54:41.016Z,37.80
2018-09-04T05:55:44.498Z,51.10
2018-09-04T05:56:47.925Z,37.93
2018-09-04T05:57:51.307Z,31.07
2018-09-04T05:58:54.740Z,41.23
2018-09-04T05:59:58.341Z,43.73
2018-09-04T06:01:03.100Z,43.60
2018-09-04T06:02:06.533Z,41.93
2018-09-04T06:03:09.920Z,37.13
2018-09-04T06:04:13.383Z,35.90
2018-09-04T06:05:16.818Z,41.77
2018-09-04T06:06:20.235Z,33.37
2018-09-04T06:07:23.641Z,41.83
2018-09-04T06:08:27.156Z,39.37
2018-09-04T06:09:30.628Z,51.60
2018-09-04T06:10:34.091Z,51.90
2018-09-04T06:11:37.528Z,45.07
2018-09-04T06:12:41.010Z,44.80
2018-09-04T06:13:44.432Z,50.77
2018-09-04T06:14:47.840Z,49.60
2018-09-04T06:15:51.256Z,45.47
2018-09-04T06:16:54.671Z,43.30
2018-09-04T06:17:58.710Z,40.10
2018-09-04T06:19:02.244Z,47.83
2018-09-04T06:20:06.049Z,49.73
2018-09-04T06:21:09.361Z,42.10
2018-09-04T06:22:12.790Z,42.93
2018-09-04T06:23:16.245Z,42.40
2018-09-04T06:24:19.605Z,45.47
2018-09-04T06:25:23.063Z,45.17
2018-09-04T06:26:26.492Z,50.70
2018-09-04T06:27:30.021Z,44.30
2018-09-04T06:28:33.447Z,37.70
2018-09-04T06:29:36.844Z,48.83
2018-09-04T06:30:40.320Z,36.27
2018-09-04T06:31:43.708Z,44.37
2018-09-04T06:32:47.148Z,50.23
2018-09-04T06:33:50.553Z,32.83
2018-09-04T06:34:53.972Z,38.00
2018-09-04T06:35:57.365Z,37.30
2018-09-04T06:37:00.827Z,30.50
2018-09-04T06:38:04.427Z,45.43
2018-09-04T06:39:09.838Z,30.53
2018-09-04T06:40:13.248Z,37.80
2018-09-04T06:41:16.598Z,32.50
2018-09-04T06:42:20.005Z,45.73
2018-09-04T06:43:23.409Z,37.53
2018-09-04T06:44:27.787Z,35.20
2018-09-04T06:45:31.273Z,31.27
2018-09-04T06:46:35.012Z,34.83
2018-09-04T06:47:38.324Z,33.07
2018-09-04T06:48:41.764Z,34.47
2018-09-04T06:49:45.210Z,32.70
2018-09-04T06:50:48.688Z,34.87
2018-09-04T06:51:52.102Z,30.63
2018-09-04T06:52:55.488Z,35.37
2018-09-04T06:53:58.958Z,32.80
2018-09-04T06:55:02.385Z,36.47
2018-09-04T06:56:06.514Z,31.80
2018-09-04T06:57:09.987Z,36.10
2018-09-04T06:58:13.804Z,31.10
2018-09-04T06:59:17.275Z,29.73
2018-09-04T07:00:20.678Z,29.77
2018-09-04T07:01:24.058Z,37.70
2018-09-04T07:02:27.464Z,26.97
2018-09-04T07:03:30.861Z,28.37
2018-09-04T07:04:34.301Z,30.30
2018-09-04T07:05:37.710Z,40.93
2018-09-04T07:06:41.091Z,28.03
2018-09-04T07:07:44.484Z,33.40
2018-09-04T07:08:47.876Z,28.27
2018-09-04T07:09:51.281Z,27.90
2018-09-04T07:10:54.764Z,29.80
2018-09-04T07:11:58.208Z,28.07
2018-09-04T07:13:01.651Z,28.53
2018-09-04T07:14:05.066Z,33.47
2018-09-04T07:15:08.814Z,27.67
2018-09-04T07:16:12.211Z,26.10
2018-09-04T07:17:15.599Z,21.30
2018-09-04T07:18:18.983Z,27.83
2018-09-04T07:19:22.427Z,28.60
2018-09-04T07:20:25.880Z,24.67
2018-09-04T07:21:29.297Z,28.40
2018-09-04T07:22:32.732Z,24.27
2018-09-04T07:23:36.105Z,27.50
2018-09-04T07:24:39.528Z,26.60
2018-09-04T07:25:42.988Z,23.07
2018-09-04T07:26:47.002Z,30.33
2018-09-04T07:27:50.420Z,22.57
2018-09-04T07:28:53.888Z,30.83
2018-09-04T07:29:57.347Z,25.47
2018-09-04T07:31:00.839Z,27.93
2018-09-04T07:32:04.298Z,25.90
2018-09-04T07:33:07.906Z,20.80
2018-09-04T07:34:11.282Z,23.43
2018-09-04T07:35:14.701Z,24.80
2018-09-04T07:36:18.126Z,25.07
2018-09-04T07:37:21.549Z,30.97
2018-09-04T07:38:24.938Z,23.87
2018-09-04T07:39:28.355Z,28.57
2018-09-04T07:40:31.974Z,24.37
2018-09-04T07:41:35.430Z,25.13
2018-09-04T07:42:38.871Z,22.83
2018-09-04T07:43:42.412Z,23.50
2018-09-04T07:44:45.813Z,23.97
2018-09-04T07:45:49.252Z,21.60
2018-09-04T07:46:52.687Z,23.10
2018-09-04T07:47:56.107Z,21.37
2018-09-04T07:48:59.558Z,19.90
2018-09-04T07:50:02.979Z,26.93
2018-09-04T07:51:06.390Z,23.23
2018-09-04T07:52:09.820Z,25.23
2018-09-04T07:53:13.275Z,24.43
2018-09-04T07:54:16.684Z,25.73
2018-09-04T07:55:20.105Z,20.30
2018-09-04T07:56:23.594Z,24.60
2018-09-04T07:57:27.368Z,21.20
2018-09-04T07:58:30.830Z,24.10
2018-09-04T07:59:34.234Z,21.13
2018-09-04T08:00:37.660Z,20.80
2018-09-04T08:01:41.103Z,21.30
2018-09-04T08:02:44.498Z,20.93
2018-09-04T08:03:47.961Z,23.83
2018-09-04T08:04:51.399Z,21.33
2018-09-04T08:05:54.795Z,19.00
2018-09-04T08:06:58.247Z,21.77
2018-09-04T08:08:01.748Z,22.70
2018-09-04T08:09:07.025Z,20.07
2018-09-04T08:10:10.571Z,20.30
2018-09-04T08:11:13.999Z,20.20
2018-09-04T08:12:17.426Z,21.77
2018-09-04T08:13:20.915Z,20.03
2018-09-04T08:14:24.331Z,20.97
2018-09-04T08:15:27.753Z,25.20
2018-09-04T08:16:31.346Z,19.10
2018-09-04T08:17:34.740Z,23.03
2018-09-04T08:18:38.308Z,24.57
2018-09-04T08:19:41.679Z,17.83
2018-09-04T08:20:45.142Z,25.10
2018-09-04T08:21:48.567Z,19.73
2018-09-04T08:22:54.303Z,20.73
2018-09-04T08:23:57.733Z,17.33
2018-09-04T08:25:01.145Z,19.57
2018-09-04T08:26:04.651Z,21.37
2018-09-04T08:27:08.040Z,22.17
2018-09-04T08:28:11.515Z,19.23
2018-09-04T08:29:14.908Z,21.03
2018-09-04T08:30:18.320Z,23.53
2018-09-04T08:31:21.828Z,20.67
2018-09-04T08:32:25.331Z,21.20
2018-09-04T08:33:28.799Z,18.40
2018-09-04T08:34:32.328Z,18.30
2018-09-04T08:35:35.834Z,18.83
2018-09-04T08:36:39.250Z,19.33
2018-09-04T08:37:42.636Z,19.20
2018-09-04T08:38:49.003Z,18.13
2018-09-04T08:39:52.417Z,16.30
2018-09-04T08:40:55.816Z,21.80
2018-09-04T08:41:59.264Z,17.93
2018-09-04T08:43:02.795Z,20.17
2018-09-04T08:44:06.226Z,17.23
2018-09-04T08:45:09.617Z,17.70
2018-09-04T08:46:13.036Z,17.37
2018-09-04T08:47:16.554Z,19.00
2018-09-04T08:48:21.419Z,18.90
2018-09-04T08:49:24.844Z,18.10
2018-09-04T08:50:29.514Z,18.33
2018-09-04T08:51:33.068Z,18.20
2018-09-04T08:52:36.560Z,19.07
2018-09-04T08:53:40.044Z,20.40
2018-09-04T08:54:43.590Z,16.73
2018-09-04T08:55:46.999Z,19.17
2018-09-04T08:56:50.426Z,16.20
2018-09-04T08:57:53.923Z,17.97
2018-09-04T08:58:57.349Z,16.00
2018-09-04T09:00:00.734Z,16.30
2018-09-04T09:01:04.149Z,14.23
2018-09-04T09:02:07.559Z,19.77
2018-09-04T09:03:11.041Z,19.03
2018-09-04T09:04:14.436Z,18.33
2018-09-04T09:05:17.871Z,20.97
2018-09-04T09:06:21.266Z,15.83
2018-09-04T09:07:24.737Z,15.63
2018-09-04T09:08:28.200Z,22.80
2018-09-04T09:09:31.609Z,15.80
2018-09-04T09:10:35.035Z,16.13
2018-09-04T09:11:38.429Z,15.90
2018-09-04T09:12:41.859Z,17.47
2018-09-04T09:13:45.262Z,15.73
2018-09-04T09:14:48.789Z,17.23
2018-09-04T09:15:52.240Z,14.30
2018-09-04T09:16:55.656Z,14.47
2018-09-04T09:17:59.083Z,15.33
2018-09-04T09:19:02.489Z,17.40
2018-09-04T09:20:06.213Z,18.13
2018-09-04T09:21:09.738Z,16.53
2018-09-04T09:22:13.130Z,12.93
2018-09-04T09:23:16.530Z,15.77
2018-09-04T09:24:19.996Z,16.00
2018-09-04T09:25:23.417Z,17.03
2018-09-04T09:26:26.828Z,15.70
2018-09-04T09:27:30.249Z,15.93
2018-09-04T09:28:33.672Z,17.37
2018-09-04T09:29:37.061Z,13.93
2018-09-04T09:30:40.449Z,16.30
2018-09-04T09:31:43.846Z,15.90
2018-09-04T09:32:47.224Z,14.97
2018-09-04T09:33:50.704Z,15.00
2018-09-04T09:34:54.111Z,16.07
2018-09-04T09:35:58.209Z,16.67
2018-09-04T09:37:01.644Z,17.53
2018-09-04T09:38:05.045Z,15.37
2018-09-04T09:39:09.782Z,17.00
2018-09-04T09:40:13.378Z,15.67
2018-09-04T09:41:16.758Z,16.27
2018-09-04T09:42:20.149Z,13.90
2018-09-04T09:43:23.592Z,15.80
2018-09-04T09:44:26.995Z,13.67
2018-09-04T09:45:30.450Z,21.33
2018-09-04T09:46:33.868Z,15.83
2018-09-04T09:47:42.562Z,15.40
2018-09-04T09:48:46.208Z,14.10
2018-09-04T09:49:49.617Z,16.47
2018-09-04T09:50:53.101Z,16.00
2018-09-04T09:51:56.466Z,15.60
2018-09-04T09:53:00.012Z,17.13
2018-09-04T09:54:03.409Z,15.87
2018-09-04T09:55:08.074Z,16.30
2018-09-04T09:56:12.204Z,16.13
2018-09-04T09:57:15.605Z,15.23
2018-09-04T09:58:19.033Z,16.73
2018-09-04T09:59:22.468Z,18.73
2018-09-04T10:00:31.089Z,17.40
2018-09-04T10:02:39.970Z,12.70
2018-09-04T10:03:48.794Z,14.60
2018-09-04T10:04:52.187Z,20.70
2018-09-04T10:05:55.864Z,20.67
2018-09-04T10:06:59.293Z,16.80
2018-09-04T10:08:02.778Z,16.97
2018-09-04T10:09:07.842Z,18.00
2018-09-04T10:10:11.463Z,19.00
2018-09-04T10:11:14.885Z,17.07
2018-09-04T10:12:18.302Z,18.23
2018-09-04T10:13:21.696Z,21.73
2018-09-04T10:14:25.136Z,15.50
2018-09-04T10:15:28.665Z,18.77
2018-09-04T10:16:32.092Z,17.33
2018-09-04T10:17:35.515Z,22.70
2018-09-04T10:18:38.925Z,18.43
2018-09-04T10:19:42.337Z,17.10
2018-09-04T10:20:45.818Z,15.90
2018-09-04T10:21:49.240Z,16.37
2018-09-04T10:22:53.112Z,13.77
2018-09-04T10:23:56.541Z,24.87
2018-09-04T10:25:00.009Z,39.83
2018-09-04T10:26:03.481Z,21.40
2018-09-04T10:27:06.846Z,17.97
2018-09-04T10:28:10.252Z,25.97
2018-09-04T10:29:13.805Z,22.97
2018-09-04T10:30:17.272Z,19.47
2018-09-04T10:31:20.686Z,19.90
2018-09-04T10:32:24.116Z,24.27
2018-09-04T10:33:28.227Z,21.90
2018-09-04T10:34:31.667Z,19.70
2018-09-04T10:35:35.067Z,27.13
2018-09-04T10:36:38.461Z,24.00
2018-09-04T10:37:41.912Z,19.83
2018-09-04T10:38:45.319Z,17.57
2018-09-04T10:39:53.984Z,20.47
2018-09-04T10:41:01.224Z,21.60
2018-09-04T10:42:04.646Z,26.90
2018-09-04T10:43:08.042Z,22.90
2018-09-04T10:44:11.502Z,21.63
2018-09-04T10:45:20.172Z,23.93
2018-09-04T10:46:23.611Z,23.93
2018-09-04T10:47:27.461Z,20.93
2018-09-04T10:48:31.293Z,22.83
2018-09-04T10:49:34.728Z,20.47
2018-09-04T10:50:38.187Z,25.87
2018-09-04T10:51:41.572Z,23.13
2018-09-04T10:52:44.980Z,25.30
2018-09-04T10:53:48.375Z,20.10
2018-09-04T10:54:51.842Z,22.10
2018-09-04T10:55:55.473Z,21.90
2018-09-04T10:57:00.650Z,24.00
2018-09-04T10:58:04.363Z,26.83
2018-09-04T10:59:08.380Z,24.10
2018-09-04T11:00:11.865Z,22.80
2018-09-04T11:01:15.430Z,27.87
2018-09-04T11:02:19.820Z,23.17
2018-09-04T11:03:23.305Z,22.13
2018-09-04T11:04:26.727Z,23.10
2018-09-04T11:05:30.204Z,25.70
2018-09-04T11:06:33.683Z,25.27
2018-09-04T11:07:37.109Z,23.53
2018-09-04T11:08:40.547Z,24.13
2018-09-04T11:09:44.171Z,23.60
2018-09-04T11:10:47.538Z,26.67
2018-09-04T11:11:51.751Z,25.07
2018-09-04T11:12:55.234Z,22.73
2018-09-04T11:13:58.796Z,22.60
2018-09-04T11:15:02.255Z,21.70
2018-09-04T11:16:05.668Z,32.37
2018-09-04T11:17:09.193Z,28.33
2018-09-04T11:18:12.629Z,24.00
2018-09-04T11:19:16.367Z,27.40
2018-09-04T11:20:19.746Z,21.90
2018-09-04T11:21:23.175Z,25.67
2018-09-04T11:22:26.644Z,29.23
2018-09-04T11:23:30.162Z,28.90
2018-09-04T11:24:33.816Z,27.07
2018-09-04T11:25:37.229Z,25.93
2018-09-04T11:26:40.654Z,22.87
2018-09-04T11:27:45.462Z,25.90
2018-09-04T11:28:51.992Z,24.20
2018-09-04T11:29:55.449Z,21.53
2018-09-04T11:30:59.394Z,23.10
2018-09-04T11:32:02.790Z,26.47
2018-09-04T11:33:06.198Z,23.53
2018-09-04T11:34:09.578Z,25.10
2018-09-04T11:35:13.024Z,23.27
2018-09-04T11:36:16.394Z,27.30
2018-09-04T11:37:19.784Z,28.10
2018-09-04T11:38:23.212Z,26.40
2018-09-04T11:39:26.630Z,28.77
2018-09-04T11:40:30.169Z,34.40
2018-09-04T11:41:33.558Z,23.40
2018-09-04T11:42:37.160Z,26.17
2018-09-04T11:43:40.565Z,27.10
2018-09-04T11:44:44.600Z,26.30
2018-09-04T11:45:48.073Z,26.10
2018-09-04T11:46:51.670Z,28.37
2018-09-04T11:47:54.948Z,34.10
2018-09-04T11:48:58.387Z,27.17
2018-09-04T11:50:01.810Z,35.63
2018-09-04T11:51:06.019Z,27.40
2018-09-04T11:52:09.763Z,28.00
2018-09-04T11:53:13.210Z,28.60
2018-09-04T11:54:16.692Z,25.70
2018-09-04T11:55:20.208Z,26.03
2018-09-04T11:56:23.755Z,25.20
2018-09-04T11:57:27.815Z,24.40
2018-09-04T11:58:31.269Z,25.37
2018-09-04T11:59:40.396Z,25.63
2018-09-04T12:00:48.602Z,27.50
2018-09-04T12:01:55.557Z,24.10
2018-09-04T12:02:59.089Z,23.67
2018-09-04T12:04:02.663Z,24.93
2018-09-04T12:05:06.413Z,29.17
2018-09-04T12:06:09.912Z,22.70
2018-09-04T12:07:13.444Z,24.23
2018-09-04T12:08:16.903Z,24.00
2018-09-04T12:09:20.276Z,30.90
2018-09-04T12:10:23.669Z,27.17
2018-09-04T12:11:27.298Z,25.13
2018-09-04T12:12:32.363Z,24.83
2018-09-04T12:13:35.672Z,28.97
2018-09-04T12:14:39.205Z,26.10
2018-09-04T12:15:42.574Z,24.27
2018-09-04T12:16:46.021Z,25.40
2018-09-04T12:17:49.519Z,32.40
2018-09-04T12:18:52.958Z,25.20
2018-09-04T12:20:05.121Z,24.30
2018-09-04T12:21:10.713Z,23.67
2018-09-04T12:22:15.723Z,28.77
2018-09-04T12:23:20.502Z,23.73
2018-09-04T12:24:23.923Z,23.00
2018-09-04T12:25:27.382Z,22.37
2018-09-04T12:26:30.784Z,23.03
2018-09-04T12:27:34.189Z,23.43
2018-09-04T12:28:37.647Z,22.80
2018-09-04T12:29:41.760Z,22.70
2018-09-04T12:30:45.219Z,23.17
2018-09-04T12:31:48.677Z,24.63
2018-09-04T12:32:52.241Z,24.30
2018-09-04T12:33:55.674Z,25.47
2018-09-04T12:34:59.602Z,23.43
2018-09-04T12:36:03.046Z,22.37
2018-09-04T12:37:06.437Z,25.63
2018-09-04T12:38:12.319Z,22.20
2018-09-04T12:39:15.785Z,23.50
2018-09-04T12:40:19.360Z,20.43
2018-09-04T12:41:22.745Z,23.50
2018-09-04T12:42:28.050Z,22.37
2018-09-04T12:43:31.461Z,25.10
2018-09-04T12:44:34.889Z,23.33
2018-09-04T12:45:43.567Z,20.87
2018-09-04T12:46:46.946Z,24.47
2018-09-04T12:47:50.699Z,26.40
2018-09-04T12:48:54.160Z,21.93
2018-09-04T12:49:58.033Z,20.80
2018-09-04T12:51:02.477Z,21.60
2018-09-04T12:52:06.442Z,22.23
2018-09-04T12:53:10.233Z,23.43
2018-09-04T12:54:13.694Z,21.83
2018-09-04T12:55:17.379Z,26.27
2018-09-04T12:56:20.759Z,21.97
2018-09-04T12:57:24.685Z,23.07
2018-09-04T12:58:28.594Z,25.27
2018-09-04T12:59:32.332Z,19.90
2018-09-04T13:00:35.749Z,24.27
2018-09-04T13:01:39.142Z,22.87
2018-09-04T13:02:42.517Z,21.23
2018-09-04T13:03:46.009Z,24.63
2018-09-04T13:04:49.429Z,23.77
2018-09-04T13:05:52.848Z,20.27
2018-09-04T13:06:56.234Z,27.47
2018-09-04T13:07:59.694Z,23.50
2018-09-04T13:09:03.198Z,22.70
2018-09-04T13:10:06.730Z,22.13
2018-09-04T13:11:10.109Z,28.07
2018-09-04T13:12:13.510Z,24.73
2018-09-04T13:13:16.892Z,32.20
2018-09-04T13:14:20.325Z,23.50
2018-09-04T13:15:23.912Z,26.53
2018-09-04T13:16:27.593Z,22.70
2018-09-04T13:17:30.994Z,24.13
2018-09-04T13:18:34.402Z,22.23
2018-09-04T13:19:38.443Z,24.20
2018-09-04T13:20:41.817Z,26.10
2018-09-04T13:21:45.297Z,21.97
2018-09-04T13:22:48.691Z,19.97
2018-09-04T13:23:52.066Z,21.47
2018-09-04T13:24:55.468Z,24.57
2018-09-04T13:25:59.004Z,21.90
2018-09-04T13:27:02.700Z,21.60
2018-09-04T13:28:06.721Z,21.40
2018-09-04T13:29:10.103Z,22.57
2018-09-04T13:30:13.628Z,20.03
2018-09-04T13:31:17.128Z,24.20
2018-09-04T13:32:20.571Z,23.23
2018-09-04T13:33:24.015Z,20.40
2018-09-04T13:34:27.585Z,25.80
2018-09-04T13:35:31.126Z,21.73
2018-09-04T13:36:34.595Z,21.87
2018-09-04T13:37:37.976Z,18.27
2018-09-04T13:38:41.482Z,28.10
2018-09-04T13:39:44.880Z,28.27
2018-09-04T13:40:48.601Z,20.07
2018-09-04T13:41:52.022Z,19.73
2018-09-04T13:42:55.451Z,20.07
2018-09-04T13:43:58.866Z,21.60
2018-09-04T13:45:02.247Z,24.23